sensor_id;sensor_type;location;lat;lon;timestamp;temperature;humidity
18729;DHT22;9493;51.884;5.188;2023-04-06T00:02:19;5.20;95.80
18729;DHT22;9493;51.884;5.188;2023-04-06T00:04:46;5.10;95.90
18729;DHT22;9493;51.884;5.188;2023-04-06T00:07:13;5.10;96.10
18729;DHT22;9493;51.884;5.188;2023-04-06T00:09:41;5.10;96.30
18729;DHT22;9493;51.884;5.188;2023-04-06T00:12:08;5.10;96.30
18729;DHT22;9493;51.884;5.188;2023-04-06T00:14:34;5.00;96.30
18729;DHT22;9493;51.884;5.188;2023-04-06T00:17:01;5.00;96.30
18729;DHT22;9493;51.884;5.188;2023-04-06T00:19:28;5.10;96.20
18729;DHT22;9493;51.884;5.188;2023-04-06T00:21:54;5.00;96.10
18729;DHT22;9493;51.884;5.188;2023-04-06T00:24:21;5.10;95.90
18729;DHT22;9493;51.884;5.188;2023-04-06T00:26:49;5.20;95.80
18729;DHT22;9493;51.884;5.188;2023-04-06T00:29:16;5.20;95.60
18729;DHT22;9493;51.884;5.188;2023-04-06T00:31:43;5.20;95.60
18729;DHT22;9493;51.884;5.188;2023-04-06T00:34:10;5.20;95.50
18729;DHT22;9493;51.884;5.188;2023-04-06T00:36:37;5.20;95.40
18729;DHT22;9493;51.884;5.188;2023-04-06T00:39:03;5.20;95.40
18729;DHT22;9493;51.884;5.188;2023-04-06T00:41:30;5.10;95.40
18729;DHT22;9493;51.884;5.188;2023-04-06T00:43:58;5.10;95.60
18729;DHT22;9493;51.884;5.188;2023-04-06T00:46:25;5.00;95.70
18729;DHT22;9493;51.884;5.188;2023-04-06T00:48:52;5.00;95.80
18729;DHT22;9493;51.884;5.188;2023-04-06T00:51:19;5.00;95.90
18729;DHT22;9493;51.884;5.188;2023-04-06T00:53:45;5.00;95.80
18729;DHT22;9493;51.884;5.188;2023-04-06T00:56:12;5.10;95.80
18729;DHT22;9493;51.884;5.188;2023-04-06T00:58:39;5.10;95.80
18729;DHT22;9493;51.884;5.188;2023-04-06T01:01:07;5.10;95.80
18729;DHT22;9493;51.884;5.188;2023-04-06T01:03:34;5.10;95.70
18729;DHT22;9493;51.884;5.188;2023-04-06T01:06:01;5.10;95.80
18729;DHT22;9493;51.884;5.188;2023-04-06T01:08:28;5.10;95.90
18729;DHT22;9493;51.884;5.188;2023-04-06T01:10:54;5.10;95.90
18729;DHT22;9493;51.884;5.188;2023-04-06T01:13:21;5.10;96.00
18729;DHT22;9493;51.884;5.188;2023-04-06T01:15:48;5.10;96.00
18729;DHT22;9493;51.884;5.188;2023-04-06T01:18:17;5.10;96.10
18729;DHT22;9493;51.884;5.188;2023-04-06T01:20:44;5.10;96.10
18729;DHT22;9493;51.884;5.188;2023-04-06T01:23:12;5.10;96.20
18729;DHT22;9493;51.884;5.188;2023-04-06T01:25:38;5.10;96.40
18729;DHT22;9493;51.884;5.188;2023-04-06T01:28:05;5.10;96.40
18729;DHT22;9493;51.884;5.188;2023-04-06T01:30:32;5.10;96.50
18729;DHT22;9493;51.884;5.188;2023-04-06T01:32:59;5.10;96.60
18729;DHT22;9493;51.884;5.188;2023-04-06T01:35:26;5.10;96.60
18729;DHT22;9493;51.884;5.188;2023-04-06T01:37:53;5.10;96.70
18729;DHT22;9493;51.884;5.188;2023-04-06T01:40:22;5.20;96.70
18729;DHT22;9493;51.884;5.188;2023-04-06T01:42:48;5.10;96.80
18729;DHT22;9493;51.884;5.188;2023-04-06T01:45:15;5.10;96.90
18729;DHT22;9493;51.884;5.188;2023-04-06T01:47:42;5.10;97.00
18729;DHT22;9493;51.884;5.188;2023-04-06T01:50:09;5.10;97.00
18729;DHT22;9493;51.884;5.188;2023-04-06T01:52:36;5.10;97.10
18729;DHT22;9493;51.884;5.188;2023-04-06T01:55:03;5.10;97.10
18729;DHT22;9493;51.884;5.188;2023-04-06T01:57:32;5.10;97.10
18729;DHT22;9493;51.884;5.188;2023-04-06T02:00:00;5.10;97.10
18729;DHT22;9493;51.884;5.188;2023-04-06T02:02:27;5.10;97.10
18729;DHT22;9493;51.884;5.188;2023-04-06T02:04:53;5.10;97.10
18729;DHT22;9493;51.884;5.188;2023-04-06T02:07:20;5.20;97.00
18729;DHT22;9493;51.884;5.188;2023-04-06T02:09:47;5.20;97.00
18729;DHT22;9493;51.884;5.188;2023-04-06T02:12:14;5.40;97.00
18729;DHT22;9493;51.884;5.188;2023-04-06T02:14:42;5.20;97.00
18729;DHT22;9493;51.884;5.188;2023-04-06T02:17:09;5.20;96.90
18729;DHT22;9493;51.884;5.188;2023-04-06T02:19:35;5.20;97.00
18729;DHT22;9493;51.884;5.188;2023-04-06T02:22:02;5.20;97.10
18729;DHT22;9493;51.884;5.188;2023-04-06T02:24:29;5.20;97.10
18729;DHT22;9493;51.884;5.188;2023-04-06T02:26:55;5.20;97.30
18729;DHT22;9493;51.884;5.188;2023-04-06T02:29:22;5.20;97.50
18729;DHT22;9493;51.884;5.188;2023-04-06T02:31:50;5.20;97.80
18729;DHT22;9493;51.884;5.188;2023-04-06T02:34:17;5.20;98.00
18729;DHT22;9493;51.884;5.188;2023-04-06T02:36:44;5.20;98.30
18729;DHT22;9493;51.884;5.188;2023-04-06T02:39:11;5.20;98.50
18729;DHT22;9493;51.884;5.188;2023-04-06T02:41:38;5.20;98.80
18729;DHT22;9493;51.884;5.188;2023-04-06T02:44:08;5.10;98.90
18729;DHT22;9493;51.884;5.188;2023-04-06T02:46:35;5.10;99.10
18729;DHT22;9493;51.884;5.188;2023-04-06T02:49:03;5.10;99.20
18729;DHT22;9493;51.884;5.188;2023-04-06T02:51:30;5.10;99.40
18729;DHT22;9493;51.884;5.188;2023-04-06T02:53:57;5.10;99.50
18729;DHT22;9493;51.884;5.188;2023-04-06T02:56:23;5.10;99.60
18729;DHT22;9493;51.884;5.188;2023-04-06T02:58:50;5.20;99.70
18729;DHT22;9493;51.884;5.188;2023-04-06T03:01:17;5.20;99.80
18729;DHT22;9493;51.884;5.188;2023-04-06T03:03:44;5.10;99.80
18729;DHT22;9493;51.884;5.188;2023-04-06T03:06:12;5.10;99.90
18729;DHT22;9493;51.884;5.188;2023-04-06T03:08:39;5.10;99.90
18729;DHT22;9493;51.884;5.188;2023-04-06T03:11:05;5.10;99.90
18729;DHT22;9493;51.884;5.188;2023-04-06T03:13:32;5.10;99.90
18729;DHT22;9493;51.884;5.188;2023-04-06T03:15:59;5.10;99.90
18729;DHT22;9493;51.884;5.188;2023-04-06T03:18:25;5.10;99.90
18729;DHT22;9493;51.884;5.188;2023-04-06T03:20:52;5.10;99.90
18729;DHT22;9493;51.884;5.188;2023-04-06T03:23:21;5.10;99.90
18729;DHT22;9493;51.884;5.188;2023-04-06T03:25:48;5.10;99.90
18729;DHT22;9493;51.884;5.188;2023-04-06T03:28:15;5.10;99.90
18729;DHT22;9493;51.884;5.188;2023-04-06T03:30:42;5.10;99.90
18729;DHT22;9493;51.884;5.188;2023-04-06T03:33:08;5.10;99.90
18729;DHT22;9493;51.884;5.188;2023-04-06T03:35:35;5.10;99.90
18729;DHT22;9493;51.884;5.188;2023-04-06T03:38:02;5.10;99.90
18729;DHT22;9493;51.884;5.188;2023-04-06T03:40:31;5.10;99.90
18729;DHT22;9493;51.884;5.188;2023-04-06T03:42:57;5.10;99.90
18729;DHT22;9493;51.884;5.188;2023-04-06T03:45:24;5.10;99.90
18729;DHT22;9493;51.884;5.188;2023-04-06T03:47:51;5.10;99.90
18729;DHT22;9493;51.884;5.188;2023-04-06T03:50:17;5.20;99.90
18729;DHT22;9493;51.884;5.188;2023-04-06T03:52:44;5.10;99.90
18729;DHT22;9493;51.884;5.188;2023-04-06T03:55:11;5.30;99.90
18729;DHT22;9493;51.884;5.188;2023-04-06T03:57:39;5.20;99.90
18729;DHT22;9493;51.884;5.188;2023-04-06T04:00:08;5.20;99.90
18729;DHT22;9493;51.884;5.188;2023-04-06T04:02:34;5.10;99.90
18729;DHT22;9493;51.884;5.188;2023-04-06T04:05:01;5.10;99.90
18729;DHT22;9493;51.884;5.188;2023-04-06T04:07:28;5.10;99.90
18729;DHT22;9493;51.884;5.188;2023-04-06T04:09:56;5.10;99.90
18729;DHT22;9493;51.884;5.188;2023-04-06T04:12:22;5.10;99.90
18729;DHT22;9493;51.884;5.188;2023-04-06T04:14:50;5.10;99.90
18729;DHT22;9493;51.884;5.188;2023-04-06T04:17:17;5.10;99.90
18729;DHT22;9493;51.884;5.188;2023-04-06T04:19:44;5.20;99.90
18729;DHT22;9493;51.884;5.188;2023-04-06T04:22:11;5.20;99.90
18729;DHT22;9493;51.884;5.188;2023-04-06T04:24:37;5.20;99.90
18729;DHT22;9493;51.884;5.188;2023-04-06T04:27:04;5.20;99.90
18729;DHT22;9493;51.884;5.188;2023-04-06T04:29:31;5.20;99.90
18729;DHT22;9493;51.884;5.188;2023-04-06T04:31:59;5.30;99.90
18729;DHT22;9493;51.884;5.188;2023-04-06T04:34:26;5.30;99.90
18729;DHT22;9493;51.884;5.188;2023-04-06T04:36:53;5.40;99.90
18729;DHT22;9493;51.884;5.188;2023-04-06T04:39:20;5.30;99.90
18729;DHT22;9493;51.884;5.188;2023-04-06T04:41:46;5.30;99.90
18729;DHT22;9493;51.884;5.188;2023-04-06T04:44:13;5.30;99.90
18729;DHT22;9493;51.884;5.188;2023-04-06T04:46:40;5.30;99.90
18729;DHT22;9493;51.884;5.188;2023-04-06T04:49:09;5.30;99.90
18729;DHT22;9493;51.884;5.188;2023-04-06T04:51:35;5.40;99.90
18729;DHT22;9493;51.884;5.188;2023-04-06T04:54:02;5.40;99.90
18729;DHT22;9493;51.884;5.188;2023-04-06T04:56:29;5.40;99.90
18729;DHT22;9493;51.884;5.188;2023-04-06T04:58:56;5.30;99.90
18729;DHT22;9493;51.884;5.188;2023-04-06T05:01:23;5.40;99.90
18729;DHT22;9493;51.884;5.188;2023-04-06T05:03:50;5.30;99.90
18729;DHT22;9493;51.884;5.188;2023-04-06T05:06:18;5.40;99.90
18729;DHT22;9493;51.884;5.188;2023-04-06T05:08:45;5.40;99.90
18729;DHT22;9493;51.884;5.188;2023-04-06T05:11:12;5.40;99.90
18729;DHT22;9493;51.884;5.188;2023-04-06T05:13:39;5.40;99.90
18729;DHT22;9493;51.884;5.188;2023-04-06T05:16:06;5.40;99.90
18729;DHT22;9493;51.884;5.188;2023-04-06T05:18:32;5.50;99.90
18729;DHT22;9493;51.884;5.188;2023-04-06T05:20:59;5.50;99.90
18729;DHT22;9493;51.884;5.188;2023-04-06T05:23:27;5.50;99.90
18729;DHT22;9493;51.884;5.188;2023-04-06T05:25:54;5.50;99.90
18729;DHT22;9493;51.884;5.188;2023-04-06T05:28:21;5.50;99.90
18729;DHT22;9493;51.884;5.188;2023-04-06T05:30:48;5.50;99.90
18729;DHT22;9493;51.884;5.188;2023-04-06T05:33:15;5.50;99.90
18729;DHT22;9493;51.884;5.188;2023-04-06T05:35:41;5.50;99.90
18729;DHT22;9493;51.884;5.188;2023-04-06T05:38:08;5.60;99.90
18729;DHT22;9493;51.884;5.188;2023-04-06T05:40:37;5.60;99.90
18729;DHT22;9493;51.884;5.188;2023-04-06T05:43:06;5.60;99.90
18729;DHT22;9493;51.884;5.188;2023-04-06T05:45:33;5.60;99.90
18729;DHT22;9493;51.884;5.188;2023-04-06T05:48:00;5.60;99.90
18729;DHT22;9493;51.884;5.188;2023-04-06T05:50:27;5.70;99.90
18729;DHT22;9493;51.884;5.188;2023-04-06T05:52:54;5.70;99.90
18729;DHT22;9493;51.884;5.188;2023-04-06T05:55:21;5.80;99.90
18729;DHT22;9493;51.884;5.188;2023-04-06T05:57:49;5.90;99.90
18729;DHT22;9493;51.884;5.188;2023-04-06T06:00:17;5.90;99.90
18729;DHT22;9493;51.884;5.188;2023-04-06T06:02:44;6.00;99.90
18729;DHT22;9493;51.884;5.188;2023-04-06T06:05:11;6.00;99.90
18729;DHT22;9493;51.884;5.188;2023-04-06T06:07:38;6.00;99.90
18729;DHT22;9493;51.884;5.188;2023-04-06T06:10:05;5.90;99.90
18729;DHT22;9493;51.884;5.188;2023-04-06T06:12:32;6.00;99.90
18729;DHT22;9493;51.884;5.188;2023-04-06T06:15:00;6.00;99.90
18729;DHT22;9493;51.884;5.188;2023-04-06T06:17:27;6.00;99.90
18729;DHT22;9493;51.884;5.188;2023-04-06T06:19:54;6.00;99.90
18729;DHT22;9493;51.884;5.188;2023-04-06T06:22:20;6.20;99.90
18729;DHT22;9493;51.884;5.188;2023-04-06T06:24:47;6.10;99.90
18729;DHT22;9493;51.884;5.188;2023-04-06T06:27:15;6.20;99.90
18729;DHT22;9493;51.884;5.188;2023-04-06T06:29:41;6.20;99.90
18729;DHT22;9493;51.884;5.188;2023-04-06T06:32:10;6.20;99.90
18729;DHT22;9493;51.884;5.188;2023-04-06T06:34:36;6.10;99.90
18729;DHT22;9493;51.884;5.188;2023-04-06T06:37:03;6.20;99.90
18729;DHT22;9493;51.884;5.188;2023-04-06T06:39:30;6.10;99.90
18729;DHT22;9493;51.884;5.188;2023-04-06T06:41:57;6.10;99.90
18729;DHT22;9493;51.884;5.188;2023-04-06T06:44:26;6.00;99.90
18729;DHT22;9493;51.884;5.188;2023-04-06T06:46:52;6.10;99.90
18729;DHT22;9493;51.884;5.188;2023-04-06T06:49:21;6.10;99.90
18729;DHT22;9493;51.884;5.188;2023-04-06T06:51:47;6.20;99.90
18729;DHT22;9493;51.884;5.188;2023-04-06T06:54:14;6.20;99.90
18729;DHT22;9493;51.884;5.188;2023-04-06T06:56:41;6.20;99.90
18729;DHT22;9493;51.884;5.188;2023-04-06T06:59:08;6.20;99.90
18729;DHT22;9493;51.884;5.188;2023-04-06T07:01:34;6.20;99.90
18729;DHT22;9493;51.884;5.188;2023-04-06T07:04:01;6.30;99.90
18729;DHT22;9493;51.884;5.188;2023-04-06T07:06:29;6.30;99.90
18729;DHT22;9493;51.884;5.188;2023-04-06T07:08:56;6.40;99.90
18729;DHT22;9493;51.884;5.188;2023-04-06T07:11:23;6.40;99.90
18729;DHT22;9493;51.884;5.188;2023-04-06T07:13:49;6.40;99.90
18729;DHT22;9493;51.884;5.188;2023-04-06T07:16:16;6.40;99.90
18729;DHT22;9493;51.884;5.188;2023-04-06T07:18:43;6.40;99.90
18729;DHT22;9493;51.884;5.188;2023-04-06T07:21:10;6.40;99.90
18729;DHT22;9493;51.884;5.188;2023-04-06T07:23:38;6.50;99.90
18729;DHT22;9493;51.884;5.188;2023-04-06T07:26:05;6.50;99.90
18729;DHT22;9493;51.884;5.188;2023-04-06T07:28:32;6.60;99.90
18729;DHT22;9493;51.884;5.188;2023-04-06T07:30:59;6.60;99.90
18729;DHT22;9493;51.884;5.188;2023-04-06T07:33:26;6.70;99.90
18729;DHT22;9493;51.884;5.188;2023-04-06T07:35:55;6.80;99.90
18729;DHT22;9493;51.884;5.188;2023-04-06T07:38:22;6.80;99.90
18729;DHT22;9493;51.884;5.188;2023-04-06T07:40:50;6.80;99.90
18729;DHT22;9493;51.884;5.188;2023-04-06T07:43:16;6.80;99.90
18729;DHT22;9493;51.884;5.188;2023-04-06T07:45:44;7.00;99.90
18729;DHT22;9493;51.884;5.188;2023-04-06T07:48:10;6.90;99.90
18729;DHT22;9493;51.884;5.188;2023-04-06T07:50:37;6.90;99.90
18729;DHT22;9493;51.884;5.188;2023-04-06T07:53:04;6.90;99.90
18729;DHT22;9493;51.884;5.188;2023-04-06T07:55:31;7.00;99.90
18729;DHT22;9493;51.884;5.188;2023-04-06T07:57:59;7.10;99.90
18729;DHT22;9493;51.884;5.188;2023-04-06T08:00:26;7.00;99.90
18729;DHT22;9493;51.884;5.188;2023-04-06T08:02:53;7.20;99.90
18729;DHT22;9493;51.884;5.188;2023-04-06T08:05:20;7.30;99.90
18729;DHT22;9493;51.884;5.188;2023-04-06T08:07:47;7.50;99.90
18729;DHT22;9493;51.884;5.188;2023-04-06T08:10:13;7.30;99.90
18729;DHT22;9493;51.884;5.188;2023-04-06T08:12:40;7.40;99.90
18729;DHT22;9493;51.884;5.188;2023-04-06T08:15:09;7.40;99.90
18729;DHT22;9493;51.884;5.188;2023-04-06T08:17:36;7.50;99.90
18729;DHT22;9493;51.884;5.188;2023-04-06T08:20:03;7.50;99.90
18729;DHT22;9493;51.884;5.188;2023-04-06T08:22:30;7.50;99.90
18729;DHT22;9493;51.884;5.188;2023-04-06T08:24:57;7.60;99.90
18729;DHT22;9493;51.884;5.188;2023-04-06T08:27:23;7.50;99.90
18729;DHT22;9493;51.884;5.188;2023-04-06T08:29:50;7.50;99.90
18729;DHT22;9493;51.884;5.188;2023-04-06T08:32:18;7.70;99.90
18729;DHT22;9493;51.884;5.188;2023-04-06T08:34:46;7.80;99.90
18729;DHT22;9493;51.884;5.188;2023-04-06T08:37:12;7.80;99.90
18729;DHT22;9493;51.884;5.188;2023-04-06T08:39:39;7.90;99.90
18729;DHT22;9493;51.884;5.188;2023-04-06T08:42:11;8.00;99.90
18729;DHT22;9493;51.884;5.188;2023-04-06T08:44:40;8.20;99.90
18729;DHT22;9493;51.884;5.188;2023-04-06T08:47:07;8.10;99.90
18729;DHT22;9493;51.884;5.188;2023-04-06T08:49:37;8.00;99.90
18729;DHT22;9493;51.884;5.188;2023-04-06T08:52:06;7.90;99.90
18729;DHT22;9493;51.884;5.188;2023-04-06T08:54:33;8.00;99.90
18729;DHT22;9493;51.884;5.188;2023-04-06T08:57:01;8.20;99.90
18729;DHT22;9493;51.884;5.188;2023-04-06T08:59:28;8.20;99.90
18729;DHT22;9493;51.884;5.188;2023-04-06T09:01:55;8.30;99.90
18729;DHT22;9493;51.884;5.188;2023-04-06T09:04:22;8.50;99.90
18729;DHT22;9493;51.884;5.188;2023-04-06T09:06:50;8.60;99.90
18729;DHT22;9493;51.884;5.188;2023-04-06T09:09:17;8.70;99.90
18729;DHT22;9493;51.884;5.188;2023-04-06T09:11:46;8.70;99.90
18729;DHT22;9493;51.884;5.188;2023-04-06T09:14:13;8.70;99.90
18729;DHT22;9493;51.884;5.188;2023-04-06T09:16:40;9.00;99.90
18729;DHT22;9493;51.884;5.188;2023-04-06T09:19:08;9.10;99.90
18729;DHT22;9493;51.884;5.188;2023-04-06T09:21:35;9.20;99.90
18729;DHT22;9493;51.884;5.188;2023-04-06T09:24:04;9.40;99.90
18729;DHT22;9493;51.884;5.188;2023-04-06T09:26:31;9.50;99.90
18729;DHT22;9493;51.884;5.188;2023-04-06T09:28:59;9.60;99.90
18729;DHT22;9493;51.884;5.188;2023-04-06T09:31:27;9.70;99.90
18729;DHT22;9493;51.884;5.188;2023-04-06T09:33:56;9.50;99.90
18729;DHT22;9493;51.884;5.188;2023-04-06T09:36:30;9.40;99.90
18729;DHT22;9493;51.884;5.188;2023-04-06T09:38:58;9.40;99.90
18729;DHT22;9493;51.884;5.188;2023-04-06T09:41:28;9.20;99.90
18729;DHT22;9493;51.884;5.188;2023-04-06T09:44:03;9.20;99.90
18729;DHT22;9493;51.884;5.188;2023-04-06T09:46:31;9.30;99.90
18729;DHT22;9493;51.884;5.188;2023-04-06T09:49:00;9.40;99.90
18729;DHT22;9493;51.884;5.188;2023-04-06T09:51:30;9.40;99.90
18729;DHT22;9493;51.884;5.188;2023-04-06T09:53:58;9.20;99.90
18729;DHT22;9493;51.884;5.188;2023-04-06T09:56:29;9.30;99.90
18729;DHT22;9493;51.884;5.188;2023-04-06T09:59:08;9.10;99.90
18729;DHT22;9493;51.884;5.188;2023-04-06T10:01:36;9.00;99.90
18729;DHT22;9493;51.884;5.188;2023-04-06T10:04:11;8.90;99.90
18729;DHT22;9493;51.884;5.188;2023-04-06T10:06:40;9.00;99.90
18729;DHT22;9493;51.884;5.188;2023-04-06T10:09:07;8.70;99.90
18729;DHT22;9493;51.884;5.188;2023-04-06T10:11:36;8.60;99.90
18729;DHT22;9493;51.884;5.188;2023-04-06T10:14:03;8.80;99.90
18729;DHT22;9493;51.884;5.188;2023-04-06T10:16:30;8.70;99.90
18729;DHT22;9493;51.884;5.188;2023-04-06T10:19:04;8.60;99.90
18729;DHT22;9493;51.884;5.188;2023-04-06T10:21:34;8.70;99.90
18729;DHT22;9493;51.884;5.188;2023-04-06T10:24:07;8.60;99.90
18729;DHT22;9493;51.884;5.188;2023-04-06T10:26:37;8.60;99.90
18729;DHT22;9493;51.884;5.188;2023-04-06T10:29:04;8.60;99.90
18729;DHT22;9493;51.884;5.188;2023-04-06T10:31:31;8.60;99.90
18729;DHT22;9493;51.884;5.188;2023-04-06T10:34:00;8.50;99.90
18729;DHT22;9493;51.884;5.188;2023-04-06T10:36:28;8.40;99.90
18729;DHT22;9493;51.884;5.188;2023-04-06T10:38:59;8.30;99.90
18729;DHT22;9493;51.884;5.188;2023-04-06T10:41:32;8.40;99.90
18729;DHT22;9493;51.884;5.188;2023-04-06T10:44:01;8.30;99.90
18729;DHT22;9493;51.884;5.188;2023-04-06T10:46:29;8.30;99.90
18729;DHT22;9493;51.884;5.188;2023-04-06T10:48:57;8.20;99.90
18729;DHT22;9493;51.884;5.188;2023-04-06T10:51:28;8.40;99.90
18729;DHT22;9493;51.884;5.188;2023-04-06T10:53:55;8.30;99.90
18729;DHT22;9493;51.884;5.188;2023-04-06T10:56:24;8.30;99.90
18729;DHT22;9493;51.884;5.188;2023-04-06T10:58:54;8.40;99.90
18729;DHT22;9493;51.884;5.188;2023-04-06T11:01:24;8.30;99.90
18729;DHT22;9493;51.884;5.188;2023-04-06T11:03:53;8.40;99.90
18729;DHT22;9493;51.884;5.188;2023-04-06T11:06:21;8.40;99.90
18729;DHT22;9493;51.884;5.188;2023-04-06T11:08:49;8.40;99.90
18729;DHT22;9493;51.884;5.188;2023-04-06T11:11:17;8.50;99.90
18729;DHT22;9493;51.884;5.188;2023-04-06T11:13:45;8.40;99.90
18729;DHT22;9493;51.884;5.188;2023-04-06T11:16:14;8.50;99.90
18729;DHT22;9493;51.884;5.188;2023-04-06T11:18:54;8.40;99.90
18729;DHT22;9493;51.884;5.188;2023-04-06T11:21:32;8.40;99.90
18729;DHT22;9493;51.884;5.188;2023-04-06T11:24:06;8.50;99.90
18729;DHT22;9493;51.884;5.188;2023-04-06T11:26:37;8.50;99.90
18729;DHT22;9493;51.884;5.188;2023-04-06T11:29:04;8.50;99.90
18729;DHT22;9493;51.884;5.188;2023-04-06T11:31:31;8.50;99.90
18729;DHT22;9493;51.884;5.188;2023-04-06T11:33:59;8.60;99.90
18729;DHT22;9493;51.884;5.188;2023-04-06T11:36:27;8.60;99.90
18729;DHT22;9493;51.884;5.188;2023-04-06T11:38:56;8.50;99.90
18729;DHT22;9493;51.884;5.188;2023-04-06T11:41:23;8.60;99.90
18729;DHT22;9493;51.884;5.188;2023-04-06T11:43:55;8.60;99.90
18729;DHT22;9493;51.884;5.188;2023-04-06T11:46:22;8.60;99.90
18729;DHT22;9493;51.884;5.188;2023-04-06T11:48:48;8.80;99.90
18729;DHT22;9493;51.884;5.188;2023-04-06T11:51:23;8.90;99.90
18729;DHT22;9493;51.884;5.188;2023-04-06T11:53:50;8.80;99.90
18729;DHT22;9493;51.884;5.188;2023-04-06T11:56:23;8.80;99.90
18729;DHT22;9493;51.884;5.188;2023-04-06T11:58:50;8.90;99.90
18729;DHT22;9493;51.884;5.188;2023-04-06T12:01:17;9.00;99.90
18729;DHT22;9493;51.884;5.188;2023-04-06T12:03:44;9.10;99.90
18729;DHT22;9493;51.884;5.188;2023-04-06T12:06:11;8.90;99.90
18729;DHT22;9493;51.884;5.188;2023-04-06T12:08:39;8.80;99.90
18729;DHT22;9493;51.884;5.188;2023-04-06T12:11:06;8.90;99.90
18729;DHT22;9493;51.884;5.188;2023-04-06T12:13:32;8.90;99.90
18729;DHT22;9493;51.884;5.188;2023-04-06T12:15:59;8.80;99.90
18729;DHT22;9493;51.884;5.188;2023-04-06T12:18:26;8.70;99.90
18729;DHT22;9493;51.884;5.188;2023-04-06T12:20:53;8.80;99.90
18729;DHT22;9493;51.884;5.188;2023-04-06T12:23:20;8.60;99.90
18729;DHT22;9493;51.884;5.188;2023-04-06T12:25:48;8.60;99.90
18729;DHT22;9493;51.884;5.188;2023-04-06T12:28:15;8.70;99.90
18729;DHT22;9493;51.884;5.188;2023-04-06T12:30:41;8.70;99.90
18729;DHT22;9493;51.884;5.188;2023-04-06T12:33:08;8.70;99.90
18729;DHT22;9493;51.884;5.188;2023-04-06T12:35:37;8.80;99.90
18729;DHT22;9493;51.884;5.188;2023-04-06T12:38:05;8.70;99.90
18729;DHT22;9493;51.884;5.188;2023-04-06T12:40:36;8.80;99.90
18729;DHT22;9493;51.884;5.188;2023-04-06T12:43:04;8.60;99.90
18729;DHT22;9493;51.884;5.188;2023-04-06T12:45:31;8.60;99.90
18729;DHT22;9493;51.884;5.188;2023-04-06T12:47:58;8.60;99.90
18729;DHT22;9493;51.884;5.188;2023-04-06T12:50:25;8.60;99.90
18729;DHT22;9493;51.884;5.188;2023-04-06T12:52:52;8.50;99.90
18729;DHT22;9493;51.884;5.188;2023-04-06T12:55:18;8.40;99.90
18729;DHT22;9493;51.884;5.188;2023-04-06T12:57:46;8.40;99.90
18729;DHT22;9493;51.884;5.188;2023-04-06T13:00:15;8.50;99.90
18729;DHT22;9493;51.884;5.188;2023-04-06T13:02:42;8.50;99.90
18729;DHT22;9493;51.884;5.188;2023-04-06T13:05:12;8.50;99.90
18729;DHT22;9493;51.884;5.188;2023-04-06T13:07:39;8.40;99.90
18729;DHT22;9493;51.884;5.188;2023-04-06T13:10:07;8.40;99.90
18729;DHT22;9493;51.884;5.188;2023-04-06T13:12:36;8.40;99.90
18729;DHT22;9493;51.884;5.188;2023-04-06T13:15:03;8.50;99.90
18729;DHT22;9493;51.884;5.188;2023-04-06T13:17:31;8.50;99.90
18729;DHT22;9493;51.884;5.188;2023-04-06T13:19:58;8.50;99.90
18729;DHT22;9493;51.884;5.188;2023-04-06T13:22:25;8.50;99.90
18729;DHT22;9493;51.884;5.188;2023-04-06T13:24:52;8.50;99.90
18729;DHT22;9493;51.884;5.188;2023-04-06T13:27:18;8.50;99.90
18729;DHT22;9493;51.884;5.188;2023-04-06T13:29:45;8.60;99.90
18729;DHT22;9493;51.884;5.188;2023-04-06T13:32:12;8.50;99.90
18729;DHT22;9493;51.884;5.188;2023-04-06T13:34:40;8.50;99.90
18729;DHT22;9493;51.884;5.188;2023-04-06T13:37:11;8.40;99.90
18729;DHT22;9493;51.884;5.188;2023-04-06T13:39:37;8.30;99.90
18729;DHT22;9493;51.884;5.188;2023-04-06T13:42:04;8.30;99.90
18729;DHT22;9493;51.884;5.188;2023-04-06T13:44:32;8.30;99.90
18729;DHT22;9493;51.884;5.188;2023-04-06T13:46:58;8.20;99.90
18729;DHT22;9493;51.884;5.188;2023-04-06T13:49:25;8.20;99.90
18729;DHT22;9493;51.884;5.188;2023-04-06T13:51:54;8.20;99.90
18729;DHT22;9493;51.884;5.188;2023-04-06T13:54:21;8.30;99.90
18729;DHT22;9493;51.884;5.188;2023-04-06T13:56:48;8.20;99.90
18729;DHT22;9493;51.884;5.188;2023-04-06T13:59:14;8.20;99.90
18729;DHT22;9493;51.884;5.188;2023-04-06T14:01:41;8.10;99.90
18729;DHT22;9493;51.884;5.188;2023-04-06T14:04:08;8.10;99.90
18729;DHT22;9493;51.884;5.188;2023-04-06T14:06:36;8.10;99.90
18729;DHT22;9493;51.884;5.188;2023-04-06T14:09:04;8.10;99.90
18729;DHT22;9493;51.884;5.188;2023-04-06T14:11:31;8.00;99.90
18729;DHT22;9493;51.884;5.188;2023-04-06T14:13:59;8.00;99.90
18729;DHT22;9493;51.884;5.188;2023-04-06T14:16:26;8.00;99.90
18729;DHT22;9493;51.884;5.188;2023-04-06T14:18:52;8.10;99.90
18729;DHT22;9493;51.884;5.188;2023-04-06T14:21:20;8.00;99.90
18729;DHT22;9493;51.884;5.188;2023-04-06T14:23:47;8.20;99.90
18729;DHT22;9493;51.884;5.188;2023-04-06T14:26:15;8.10;99.90
18729;DHT22;9493;51.884;5.188;2023-04-06T14:28:42;8.20;99.90
18729;DHT22;9493;51.884;5.188;2023-04-06T14:31:13;8.00;99.90
18729;DHT22;9493;51.884;5.188;2023-04-06T14:33:41;8.00;99.90
18729;DHT22;9493;51.884;5.188;2023-04-06T14:36:08;7.90;99.90
18729;DHT22;9493;51.884;5.188;2023-04-06T14:38:36;7.90;99.90
18729;DHT22;9493;51.884;5.188;2023-04-06T14:41:03;7.90;99.90
18729;DHT22;9493;51.884;5.188;2023-04-06T14:43:33;8.00;99.90
18729;DHT22;9493;51.884;5.188;2023-04-06T14:46:00;8.00;99.90
18729;DHT22;9493;51.884;5.188;2023-04-06T14:48:27;7.90;99.90
18729;DHT22;9493;51.884;5.188;2023-04-06T14:50:55;7.90;99.90
18729;DHT22;9493;51.884;5.188;2023-04-06T14:53:22;8.00;99.90
18729;DHT22;9493;51.884;5.188;2023-04-06T14:55:49;7.90;99.90
18729;DHT22;9493;51.884;5.188;2023-04-06T14:58:17;7.90;99.90
18729;DHT22;9493;51.884;5.188;2023-04-06T15:00:45;8.00;99.90
18729;DHT22;9493;51.884;5.188;2023-04-06T15:03:12;7.90;99.90
18729;DHT22;9493;51.884;5.188;2023-04-06T15:05:39;7.80;99.90
18729;DHT22;9493;51.884;5.188;2023-04-06T15:08:06;7.80;99.90
18729;DHT22;9493;51.884;5.188;2023-04-06T15:10:34;7.80;99.90
18729;DHT22;9493;51.884;5.188;2023-04-06T15:13:01;7.80;99.90
18729;DHT22;9493;51.884;5.188;2023-04-06T15:15:28;7.80;99.90
18729;DHT22;9493;51.884;5.188;2023-04-06T15:17:56;7.90;99.90
18729;DHT22;9493;51.884;5.188;2023-04-06T15:20:23;7.80;99.90
18729;DHT22;9493;51.884;5.188;2023-04-06T15:22:50;7.90;99.90
18729;DHT22;9493;51.884;5.188;2023-04-06T15:25:17;7.90;99.90
18729;DHT22;9493;51.884;5.188;2023-04-06T15:27:44;7.90;99.90
18729;DHT22;9493;51.884;5.188;2023-04-06T15:30:11;7.90;99.90
18729;DHT22;9493;51.884;5.188;2023-04-06T15:32:37;7.90;99.90
18729;DHT22;9493;51.884;5.188;2023-04-06T15:35:11;8.10;99.90
18729;DHT22;9493;51.884;5.188;2023-04-06T15:37:38;7.90;99.90
18729;DHT22;9493;51.884;5.188;2023-04-06T15:40:07;7.90;99.90
18729;DHT22;9493;51.884;5.188;2023-04-06T15:42:34;7.90;99.90
18729;DHT22;9493;51.884;5.188;2023-04-06T15:45:01;7.90;99.90
18729;DHT22;9493;51.884;5.188;2023-04-06T15:47:28;7.90;99.90
18729;DHT22;9493;51.884;5.188;2023-04-06T15:49:55;7.90;99.90
18729;DHT22;9493;51.884;5.188;2023-04-06T15:52:23;7.90;99.90
18729;DHT22;9493;51.884;5.188;2023-04-06T15:54:50;7.90;99.90
18729;DHT22;9493;51.884;5.188;2023-04-06T15:57:17;7.90;99.90
18729;DHT22;9493;51.884;5.188;2023-04-06T15:59:43;7.90;99.90
18729;DHT22;9493;51.884;5.188;2023-04-06T16:02:10;7.90;99.90
18729;DHT22;9493;51.884;5.188;2023-04-06T16:04:37;7.80;99.90